sensor_id;sensor_type;location;lat;lon;timestamp;P1;durP1;ratioP1;P2;durP2;ratioP2
70008;SDS011;59542;37.950;-122.338;2023-01-19T00:01:24;3.40;;;1.50;;
70008;SDS011;59542;37.950;-122.338;2023-01-19T00:03:51;9.00;;;2.25;;
70008;SDS011;59542;37.950;-122.338;2023-01-19T00:06:17;14.23;;;2.30;;
70008;SDS011;59542;37.950;-122.338;2023-01-19T00:08:44;4.15;;;1.73;;
70008;SDS011;59542;37.950;-122.338;2023-01-19T00:11:13;5.07;;;1.95;;
70008;SDS011;59542;37.950;-122.338;2023-01-19T00:13:39;10.88;;;2.33;;
70008;SDS011;59542;37.950;-122.338;2023-01-19T00:16:06;8.75;;;2.28;;
70008;SDS011;59542;37.950;-122.338;2023-01-19T00:18:32;9.07;;;1.92;;
70008;SDS011;59542;37.950;-122.338;2023-01-19T00:20:58;10.43;;;2.40;;
70008;SDS011;59542;37.950;-122.338;2023-01-19T00:23:24;5.78;;;2.35;;
70008;SDS011;59542;37.950;-122.338;2023-01-19T00:25:51;9.95;;;2.58;;
70008;SDS011;59542;37.950;-122.338;2023-01-19T00:28:17;8.85;;;3.00;;
70008;SDS011;59542;37.950;-122.338;2023-01-19T00:30:44;9.68;;;3.10;;
70008;SDS011;59542;37.950;-122.338;2023-01-19T00:33:10;16.83;;;6.07;;
70008;SDS011;59542;37.950;-122.338;2023-01-19T00:35:38;12.95;;;6.68;;
70008;SDS011;59542;37.950;-122.338;2023-01-19T00:38:06;12.65;;;7.75;;
70008;SDS011;59542;37.950;-122.338;2023-01-19T00:40:33;14.32;;;7.50;;
70008;SDS011;59542;37.950;-122.338;2023-01-19T00:42:59;15.57;;;5.22;;
70008;SDS011;59542;37.950;-122.338;2023-01-19T00:45:25;14.98;;;3.60;;
70008;SDS011;59542;37.950;-122.338;2023-01-19T00:47:52;8.65;;;3.22;;
70008;SDS011;59542;37.950;-122.338;2023-01-19T00:50:27;9.20;;;2.50;;
70008;SDS011;59542;37.950;-122.338;2023-01-19T00:52:55;8.27;;;2.72;;
70008;SDS011;59542;37.950;-122.338;2023-01-19T00:55:25;9.88;;;2.55;;
70008;SDS011;59542;37.950;-122.338;2023-01-19T00:57:52;4.63;;;2.30;;
70008;SDS011;59542;37.950;-122.338;2023-01-19T01:00:19;7.57;;;2.65;;
70008;SDS011;59542;37.950;-122.338;2023-01-19T01:02:48;5.85;;;2.63;;
70008;SDS011;59542;37.950;-122.338;2023-01-19T01:05:16;9.48;;;2.78;;
70008;SDS011;59542;37.950;-122.338;2023-01-19T01:07:43;8.13;;;2.97;;
70008;SDS011;59542;37.950;-122.338;2023-01-19T01:10:10;8.23;;;2.30;;
70008;SDS011;59542;37.950;-122.338;2023-01-19T01:12:40;11.00;;;2.45;;
70008;SDS011;59542;37.950;-122.338;2023-01-19T01:15:07;7.30;;;2.53;;
70008;SDS011;59542;37.950;-122.338;2023-01-19T01:17:35;11.25;;;2.92;;
70008;SDS011;59542;37.950;-122.338;2023-01-19T01:20:02;8.00;;;2.10;;
70008;SDS011;59542;37.950;-122.338;2023-01-19T01:22:29;6.85;;;2.33;;
70008;SDS011;59542;37.950;-122.338;2023-01-19T01:24:55;8.45;;;2.00;;
70008;SDS011;59542;37.950;-122.338;2023-01-19T01:27:22;6.05;;;1.70;;
70008;SDS011;59542;37.950;-122.338;2023-01-19T01:29:48;7.05;;;2.45;;
70008;SDS011;59542;37.950;-122.338;2023-01-19T01:32:14;6.85;;;2.08;;
70008;SDS011;59542;37.950;-122.338;2023-01-19T01:34:42;8.35;;;2.22;;
70008;SDS011;59542;37.950;-122.338;2023-01-19T01:37:08;10.35;;;2.70;;
70008;SDS011;59542;37.950;-122.338;2023-01-19T01:39:34;7.75;;;1.90;;
70008;SDS011;59542;37.950;-122.338;2023-01-19T01:42:01;7.70;;;2.25;;
70008;SDS011;59542;37.950;-122.338;2023-01-19T01:49:55;8.23;;;2.05;;
70008;SDS011;59542;37.950;-122.338;2023-01-19T01:52:30;6.38;;;2.47;;
70008;SDS011;59542;37.950;-122.338;2023-01-19T01:54:59;8.27;;;2.05;;
70008;SDS011;59542;37.950;-122.338;2023-01-19T01:57:27;4.90;;;2.08;;
70008;SDS011;59542;37.950;-122.338;2023-01-19T01:59:54;6.75;;;2.13;;
70008;SDS011;59542;37.950;-122.338;2023-01-19T02:02:24;4.30;;;1.52;;
70008;SDS011;59542;37.950;-122.338;2023-01-19T02:05:14;6.05;;;2.13;;
70008;SDS011;59542;37.950;-122.338;2023-01-19T02:10:46;7.55;;;2.20;;
70008;SDS011;59542;37.950;-122.338;2023-01-19T02:13:32;9.15;;;2.58;;
70008;SDS011;59542;37.950;-122.338;2023-01-19T02:16:01;7.05;;;2.05;;
70008;SDS011;59542;37.950;-122.338;2023-01-19T02:18:31;6.53;;;2.80;;
70008;SDS011;59542;37.950;-122.338;2023-01-19T02:21:09;6.82;;;2.97;;
70008;SDS011;59542;37.950;-122.338;2023-01-19T02:23:55;12.95;;;3.08;;
70008;SDS011;59542;37.950;-122.338;2023-01-19T02:26:34;8.13;;;2.72;;
70008;SDS011;59542;37.950;-122.338;2023-01-19T02:29:04;8.90;;;2.40;;
70008;SDS011;59542;37.950;-122.338;2023-01-19T02:31:33;6.97;;;2.58;;
70008;SDS011;59542;37.950;-122.338;2023-01-19T02:34:02;5.97;;;1.98;;
70008;SDS011;59542;37.950;-122.338;2023-01-19T02:36:31;6.18;;;1.90;;
70008;SDS011;59542;37.950;-122.338;2023-01-19T02:39:05;11.52;;;2.35;;
70008;SDS011;59542;37.950;-122.338;2023-01-19T02:41:43;11.15;;;2.05;;
70008;SDS011;59542;37.950;-122.338;2023-01-19T02:44:13;6.03;;;1.95;;
70008;SDS011;59542;37.950;-122.338;2023-01-19T02:46:41;5.03;;;1.98;;
70008;SDS011;59542;37.950;-122.338;2023-01-19T02:49:08;7.47;;;2.00;;
70008;SDS011;59542;37.950;-122.338;2023-01-19T02:51:34;8.02;;;2.53;;
70008;SDS011;59542;37.950;-122.338;2023-01-19T02:56:43;4.97;;;1.70;;
70008;SDS011;59542;37.950;-122.338;2023-01-19T03:07:13;6.38;;;2.03;;
70008;SDS011;59542;37.950;-122.338;2023-01-19T03:13:00;7.32;;;1.98;;
70008;SDS011;59542;37.950;-122.338;2023-01-19T03:15:52;3.05;;;1.75;;
70008;SDS011;59542;37.950;-122.338;2023-01-19T03:18:25;5.10;;;1.67;;
70008;SDS011;59542;37.950;-122.338;2023-01-19T03:20:54;8.70;;;1.98;;
70008;SDS011;59542;37.950;-122.338;2023-01-19T03:23:28;7.38;;;1.77;;
70008;SDS011;59542;37.950;-122.338;2023-01-19T03:25:56;8.93;;;2.15;;
70008;SDS011;59542;37.950;-122.338;2023-01-19T03:28:25;7.30;;;1.90;;
70008;SDS011;59542;37.950;-122.338;2023-01-19T03:30:58;4.93;;;1.90;;
70008;SDS011;59542;37.950;-122.338;2023-01-19T03:33:34;4.80;;;1.60;;
70008;SDS011;59542;37.950;-122.338;2023-01-19T03:36:08;5.95;;;2.05;;
70008;SDS011;59542;37.950;-122.338;2023-01-19T03:38:43;4.45;;;2.00;;
70008;SDS011;59542;37.950;-122.338;2023-01-19T03:41:13;5.45;;;1.92;;
70008;SDS011;59542;37.950;-122.338;2023-01-19T03:43:43;7.88;;;2.40;;
70008;SDS011;59542;37.950;-122.338;2023-01-19T03:46:12;7.70;;;2.08;;
70008;SDS011;59542;37.950;-122.338;2023-01-19T03:48:41;6.85;;;2.20;;
70008;SDS011;59542;37.950;-122.338;2023-01-19T03:51:08;9.93;;;2.92;;
70008;SDS011;59542;37.950;-122.338;2023-01-19T03:53:37;6.60;;;2.47;;
70008;SDS011;59542;37.950;-122.338;2023-01-19T03:56:04;8.90;;;2.75;;
70008;SDS011;59542;37.950;-122.338;2023-01-19T03:58:31;5.80;;;2.40;;
70008;SDS011;59542;37.950;-122.338;2023-01-19T04:00:57;7.45;;;2.35;;
70008;SDS011;59542;37.950;-122.338;2023-01-19T04:03:23;4.93;;;2.40;;
70008;SDS011;59542;37.950;-122.338;2023-01-19T04:05:49;7.03;;;2.80;;
70008;SDS011;59542;37.950;-122.338;2023-01-19T04:08:15;8.70;;;2.53;;
70008;SDS011;59542;37.950;-122.338;2023-01-19T04:10:42;7.53;;;2.90;;
70008;SDS011;59542;37.950;-122.338;2023-01-19T04:13:08;10.07;;;2.88;;
70008;SDS011;59542;37.950;-122.338;2023-01-19T04:15:34;8.90;;;2.45;;
70008;SDS011;59542;37.950;-122.338;2023-01-19T04:18:00;7.65;;;2.53;;
70008;SDS011;59542;37.950;-122.338;2023-01-19T04:20:27;7.20;;;2.60;;
70008;SDS011;59542;37.950;-122.338;2023-01-19T04:22:54;12.77;;;3.22;;
70008;SDS011;59542;37.950;-122.338;2023-01-19T04:25:23;9.55;;;2.70;;
70008;SDS011;59542;37.950;-122.338;2023-01-19T04:27:53;5.38;;;2.80;;
70008;SDS011;59542;37.950;-122.338;2023-01-19T04:30:20;11.35;;;2.75;;
70008;SDS011;59542;37.950;-122.338;2023-01-19T04:32:46;6.88;;;2.33;;
70008;SDS011;59542;37.950;-122.338;2023-01-19T04:35:13;10.88;;;2.90;;
70008;SDS011;59542;37.950;-122.338;2023-01-19T04:37:39;13.48;;;3.13;;
70008;SDS011;59542;37.950;-122.338;2023-01-19T04:40:05;6.82;;;2.60;;
70008;SDS011;59542;37.950;-122.338;2023-01-19T04:42:32;11.50;;;3.03;;
70008;SDS011;59542;37.950;-122.338;2023-01-19T04:44:59;7.63;;;3.20;;
70008;SDS011;59542;37.950;-122.338;2023-01-19T04:47:25;9.32;;;3.00;;
70008;SDS011;59542;37.950;-122.338;2023-01-19T04:49:51;6.28;;;2.17;;
70008;SDS011;59542;37.950;-122.338;2023-01-19T04:52:17;12.15;;;2.95;;
70008;SDS011;59542;37.950;-122.338;2023-01-19T04:54:44;8.70;;;2.80;;
70008;SDS011;59542;37.950;-122.338;2023-01-19T04:57:10;7.53;;;3.10;;
70008;SDS011;59542;37.950;-122.338;2023-01-19T04:59:37;11.55;;;2.70;;
70008;SDS011;59542;37.950;-122.338;2023-01-19T05:02:03;7.88;;;3.35;;
70008;SDS011;59542;37.950;-122.338;2023-01-19T05:04:29;7.30;;;2.63;;
70008;SDS011;59542;37.950;-122.338;2023-01-19T05:06:55;12.95;;;3.30;;
70008;SDS011;59542;37.950;-122.338;2023-01-19T05:09:22;7.85;;;3.00;;
70008;SDS011;59542;37.950;-122.338;2023-01-19T05:11:48;9.93;;;2.80;;
70008;SDS011;59542;37.950;-122.338;2023-01-19T05:14:15;15.98;;;3.83;;
70008;SDS011;59542;37.950;-122.338;2023-01-19T05:16:41;15.75;;;3.90;;
70008;SDS011;59542;37.950;-122.338;2023-01-19T05:19:07;11.18;;;3.80;;
70008;SDS011;59542;37.950;-122.338;2023-01-19T05:21:33;11.68;;;4.25;;
70008;SDS011;59542;37.950;-122.338;2023-01-19T05:24:00;10.38;;;4.32;;
70008;SDS011;59542;37.950;-122.338;2023-01-19T05:26:26;19.13;;;4.38;;
70008;SDS011;59542;37.950;-122.338;2023-01-19T05:28:52;15.85;;;4.18;;
70008;SDS011;59542;37.950;-122.338;2023-01-19T05:31:18;14.70;;;4.13;;
70008;SDS011;59542;37.950;-122.338;2023-01-19T05:33:45;14.38;;;4.45;;
70008;SDS011;59542;37.950;-122.338;2023-01-19T05:36:12;10.75;;;4.00;;
70008;SDS011;59542;37.950;-122.338;2023-01-19T05:38:38;14.57;;;4.22;;
70008;SDS011;59542;37.950;-122.338;2023-01-19T05:41:04;5.32;;;1.90;;
70008;SDS011;59542;37.950;-122.338;2023-01-19T05:43:31;3.33;;;1.40;;
70008;SDS011;59542;37.950;-122.338;2023-01-19T05:45:57;2.95;;;0.88;;
70008;SDS011;59542;37.950;-122.338;2023-01-19T05:48:23;4.68;;;1.00;;
70008;SDS011;59542;37.950;-122.338;2023-01-19T05:50:50;1.92;;;0.70;;
70008;SDS011;59542;37.950;-122.338;2023-01-19T05:53:16;2.55;;;0.63;;
70008;SDS011;59542;37.950;-122.338;2023-01-19T05:55:42;1.73;;;0.60;;
70008;SDS011;59542;37.950;-122.338;2023-01-19T05:58:09;2.10;;;0.60;;
70008;SDS011;59542;37.950;-122.338;2023-01-19T06:00:35;1.33;;;0.40;;
70008;SDS011;59542;37.950;-122.338;2023-01-19T06:03:01;2.55;;;0.70;;
70008;SDS011;59542;37.950;-122.338;2023-01-19T06:05:28;2.33;;;0.43;;
70008;SDS011;59542;37.950;-122.338;2023-01-19T06:07:55;0.80;;;0.32;;
70008;SDS011;59542;37.950;-122.338;2023-01-19T06:10:21;0.95;;;0.47;;
70008;SDS011;59542;37.950;-122.338;2023-01-19T06:12:48;1.67;;;0.40;;
70008;SDS011;59542;37.950;-122.338;2023-01-19T06:15:16;3.05;;;0.45;;
70008;SDS011;59542;37.950;-122.338;2023-01-19T06:17:42;1.52;;;0.45;;
70008;SDS011;59542;37.950;-122.338;2023-01-19T06:20:08;0.40;;;0.30;;
70008;SDS011;59542;37.950;-122.338;2023-01-19T06:22:35;0.75;;;0.40;;
70008;SDS011;59542;37.950;-122.338;2023-01-19T06:25:02;4.03;;;0.43;;
70008;SDS011;59542;37.950;-122.338;2023-01-19T06:27:28;1.13;;;0.40;;
70008;SDS011;59542;37.950;-122.338;2023-01-19T06:29:54;2.53;;;0.40;;
70008;SDS011;59542;37.950;-122.338;2023-01-19T06:32:21;0.40;;;0.30;;
70008;SDS011;59542;37.950;-122.338;2023-01-19T06:34:47;1.45;;;0.50;;
70008;SDS011;59542;37.950;-122.338;2023-01-19T06:37:13;1.75;;;0.65;;
70008;SDS011;59542;37.950;-122.338;2023-01-19T06:39:41;0.93;;;0.30;;
70008;SDS011;59542;37.950;-122.338;2023-01-19T06:42:09;0.25;;;0.17;;
70008;SDS011;59542;37.950;-122.338;2023-01-19T06:44:36;1.95;;;0.45;;
70008;SDS011;59542;37.950;-122.338;2023-01-19T06:47:02;1.45;;;0.30;;
70008;SDS011;59542;37.950;-122.338;2023-01-19T06:49:28;1.15;;;0.50;;
70008;SDS011;59542;37.950;-122.338;2023-01-19T06:51:54;0.65;;;0.30;;
70008;SDS011;59542;37.950;-122.338;2023-01-19T06:54:20;1.88;;;0.40;;
70008;SDS011;59542;37.950;-122.338;2023-01-19T06:56:47;1.95;;;0.50;;
70008;SDS011;59542;37.950;-122.338;2023-01-19T06:59:13;0.43;;;0.28;;
70008;SDS011;59542;37.950;-122.338;2023-01-19T07:01:39;1.92;;;0.45;;
70008;SDS011;59542;37.950;-122.338;2023-01-19T07:04:05;3.60;;;0.50;;
70008;SDS011;59542;37.950;-122.338;2023-01-19T07:06:32;0.98;;;0.45;;
70008;SDS011;59542;37.950;-122.338;2023-01-19T07:08:58;3.33;;;0.68;;
70008;SDS011;59542;37.950;-122.338;2023-01-19T07:11:25;4.38;;;0.70;;
70008;SDS011;59542;37.950;-122.338;2023-01-19T07:13:52;4.47;;;0.98;;
70008;SDS011;59542;37.950;-122.338;2023-01-19T07:16:19;2.65;;;0.60;;
70008;SDS011;59542;37.950;-122.338;2023-01-19T07:18:46;3.95;;;0.73;;
70008;SDS011;59542;37.950;-122.338;2023-01-19T07:21:14;2.75;;;0.50;;
70008;SDS011;59542;37.950;-122.338;2023-01-19T07:23:40;0.93;;;0.50;;
70008;SDS011;59542;37.950;-122.338;2023-01-19T07:26:08;2.90;;;0.50;;
70008;SDS011;59542;37.950;-122.338;2023-01-19T07:28:34;2.58;;;0.90;;
70008;SDS011;59542;37.950;-122.338;2023-01-19T07:31:01;1.48;;;0.60;;
70008;SDS011;59542;37.950;-122.338;2023-01-19T07:33:28;2.88;;;0.60;;
70008;SDS011;59542;37.950;-122.338;2023-01-19T07:35:54;2.60;;;0.80;;
70008;SDS011;59542;37.950;-122.338;2023-01-19T07:38:20;3.10;;;0.60;;
70008;SDS011;59542;37.950;-122.338;2023-01-19T07:40:47;4.68;;;0.80;;
70008;SDS011;59542;37.950;-122.338;2023-01-19T07:43:13;2.05;;;1.10;;
70008;SDS011;59542;37.950;-122.338;2023-01-19T07:45:40;4.70;;;0.70;;
70008;SDS011;59542;37.950;-122.338;2023-01-19T07:48:07;2.45;;;0.75;;
70008;SDS011;59542;37.950;-122.338;2023-01-19T07:50:33;2.67;;;0.50;;
70008;SDS011;59542;37.950;-122.338;2023-01-19T07:53:06;3.50;;;1.10;;
70008;SDS011;59542;37.950;-122.338;2023-01-19T07:55:36;3.75;;;1.25;;
70008;SDS011;59542;37.950;-122.338;2023-01-19T07:58:02;3.92;;;1.00;;
70008;SDS011;59542;37.950;-122.338;2023-01-19T08:00:32;2.42;;;0.70;;
70008;SDS011;59542;37.950;-122.338;2023-01-19T08:02:59;2.03;;;0.80;;
70008;SDS011;59542;37.950;-122.338;2023-01-19T08:05:27;5.80;;;1.02;;
70008;SDS011;59542;37.950;-122.338;2023-01-19T08:07:54;4.63;;;1.10;;
70008;SDS011;59542;37.950;-122.338;2023-01-19T08:10:25;5.55;;;1.48;;
70008;SDS011;59542;37.950;-122.338;2023-01-19T08:12:52;4.85;;;1.77;;
70008;SDS011;59542;37.950;-122.338;2023-01-19T08:15:20;5.03;;;1.45;;
70008;SDS011;59542;37.950;-122.338;2023-01-19T08:17:55;4.90;;;1.40;;
70008;SDS011;59542;37.950;-122.338;2023-01-19T08:20:23;3.93;;;1.33;;
70008;SDS011;59542;37.950;-122.338;2023-01-19T08:22:50;5.85;;;1.10;;
70008;SDS011;59542;37.950;-122.338;2023-01-19T08:25:31;3.42;;;0.95;;
70008;SDS011;59542;37.950;-122.338;2023-01-19T08:28:03;4.38;;;0.82;;
70008;SDS011;59542;37.950;-122.338;2023-01-19T08:30:30;8.90;;;1.10;;
70008;SDS011;59542;37.950;-122.338;2023-01-19T08:32:57;2.25;;;1.02;;
70008;SDS011;59542;37.950;-122.338;2023-01-19T08:35:36;3.25;;;0.98;;
70008;SDS011;59542;37.950;-122.338;2023-01-19T08:38:05;5.65;;;1.10;;
70008;SDS011;59542;37.950;-122.338;2023-01-19T08:40:33;4.72;;;0.90;;
70008;SDS011;59542;37.950;-122.338;2023-01-19T08:43:02;4.03;;;0.82;;
70008;SDS011;59542;37.950;-122.338;2023-01-19T08:45:33;3.08;;;1.27;;
70008;SDS011;59542;37.950;-122.338;2023-01-19T08:48:01;1.65;;;0.75;;
70008;SDS011;59542;37.950;-122.338;2023-01-19T08:50:28;2.67;;;0.65;;
70008;SDS011;59542;37.950;-122.338;2023-01-19T08:52:55;4.32;;;1.15;;
70008;SDS011;59542;37.950;-122.338;2023-01-19T08:55:23;6.82;;;1.20;;
70008;SDS011;59542;37.950;-122.338;2023-01-19T08:57:50;3.63;;;0.70;;
70008;SDS011;59542;37.950;-122.338;2023-01-19T09:00:21;3.38;;;0.90;;
70008;SDS011;59542;37.950;-122.338;2023-01-19T09:02:49;4.60;;;0.75;;
70008;SDS011;59542;37.950;-122.338;2023-01-19T09:05:18;1.73;;;1.00;;
70008;SDS011;59542;37.950;-122.338;2023-01-19T09:07:45;3.58;;;0.85;;
70008;SDS011;59542;37.950;-122.338;2023-01-19T09:10:12;1.55;;;0.70;;
70008;SDS011;59542;37.950;-122.338;2023-01-19T09:12:40;3.85;;;0.90;;
70008;SDS011;59542;37.950;-122.338;2023-01-19T09:15:07;2.00;;;0.70;;
70008;SDS011;59542;37.950;-122.338;2023-01-19T09:17:35;3.25;;;0.85;;
70008;SDS011;59542;37.950;-122.338;2023-01-19T09:20:01;2.28;;;0.70;;
70008;SDS011;59542;37.950;-122.338;2023-01-19T09:22:28;2.50;;;0.57;;
70008;SDS011;59542;37.950;-122.338;2023-01-19T09:24:54;2.08;;;0.60;;
70008;SDS011;59542;37.950;-122.338;2023-01-19T09:27:21;4.72;;;1.15;;
70008;SDS011;59542;37.950;-122.338;2023-01-19T09:29:47;1.23;;;0.77;;
70008;SDS011;59542;37.950;-122.338;2023-01-19T09:32:17;2.90;;;1.00;;
70008;SDS011;59542;37.950;-122.338;2023-01-19T09:34:44;5.28;;;1.23;;
70008;SDS011;59542;37.950;-122.338;2023-01-19T09:37:10;3.40;;;0.82;;
70008;SDS011;59542;37.950;-122.338;2023-01-19T09:39:37;1.52;;;0.70;;
70008;SDS011;59542;37.950;-122.338;2023-01-19T09:42:49;4.28;;;0.60;;
70008;SDS011;59542;37.950;-122.338;2023-01-19T09:45:09;3.38;;;0.75;;
70008;SDS011;59542;37.950;-122.338;2023-01-19T09:47:44;2.38;;;0.70;;
70008;SDS011;59542;37.950;-122.338;2023-01-19T09:50:23;2.40;;;0.70;;
70008;SDS011;59542;37.950;-122.338;2023-01-19T09:52:57;1.60;;;0.70;;
70008;SDS011;59542;37.950;-122.338;2023-01-19T09:55:31;2.78;;;0.90;;
70008;SDS011;59542;37.950;-122.338;2023-01-19T09:57:58;1.02;;;0.60;;
70008;SDS011;59542;37.950;-122.338;2023-01-19T10:00:24;1.98;;;0.60;;
70008;SDS011;59542;37.950;-122.338;2023-01-19T10:03:01;1.58;;;0.75;;
70008;SDS011;59542;37.950;-122.338;2023-01-19T10:05:41;3.33;;;1.13;;
70008;SDS011;59542;37.950;-122.338;2023-01-19T10:10:38;3.70;;;1.20;;
70008;SDS011;59542;37.950;-122.338;2023-01-19T10:16:00;4.90;;;0.85;;
70008;SDS011;59542;37.950;-122.338;2023-01-19T10:18:46;2.03;;;0.77;;
70008;SDS011;59542;37.950;-122.338;2023-01-19T10:24:04;3.40;;;1.13;;
70008;SDS011;59542;37.950;-122.338;2023-01-19T10:27:14;1.88;;;0.70;;
70008;SDS011;59542;37.950;-122.338;2023-01-19T10:29:42;2.35;;;0.80;;
70008;SDS011;59542;37.950;-122.338;2023-01-19T10:32:13;1.92;;;0.80;;
70008;SDS011;59542;37.950;-122.338;2023-01-19T10:34:44;2.90;;;0.90;;
70008;SDS011;59542;37.950;-122.338;2023-01-19T10:39:56;2.17;;;0.65;;
70008;SDS011;59542;37.950;-122.338;2023-01-19T10:42:38;1.75;;;0.70;;
70008;SDS011;59542;37.950;-122.338;2023-01-19T10:45:18;3.83;;;0.82;;
70008;SDS011;59542;37.950;-122.338;2023-01-19T10:47:59;1.17;;;0.60;;
70008;SDS011;59542;37.950;-122.338;2023-01-19T10:52:59;1.90;;;0.70;;
70008;SDS011;59542;37.950;-122.338;2023-01-19T10:55:34;3.42;;;0.77;;
70008;SDS011;59542;37.950;-122.338;2023-01-19T10:58:05;2.20;;;0.70;;
70008;SDS011;59542;37.950;-122.338;2023-01-19T11:00:50;2.70;;;0.93;;
70008;SDS011;59542;37.950;-122.338;2023-01-19T11:03:23;2.75;;;0.95;;
70008;SDS011;59542;37.950;-122.338;2023-01-19T11:08:42;3.80;;;1.10;;
70008;SDS011;59542;37.950;-122.338;2023-01-19T11:11:10;2.47;;;0.65;;
70008;SDS011;59542;37.950;-122.338;2023-01-19T11:13:40;2.60;;;0.90;;
70008;SDS011;59542;37.950;-122.338;2023-01-19T11:16:26;2.08;;;0.90;;
70008;SDS011;59542;37.950;-122.338;2023-01-19T11:18:55;5.50;;;1.25;;
70008;SDS011;59542;37.950;-122.338;2023-01-19T11:21:24;5.30;;;0.80;;
70008;SDS011;59542;37.950;-122.338;2023-01-19T11:23:52;2.60;;;0.80;;
70008;SDS011;59542;37.950;-122.338;2023-01-19T11:28:59;5.70;;;0.85;;
70008;SDS011;59542;37.950;-122.338;2023-01-19T11:31:29;2.53;;;0.93;;
70008;SDS011;59542;37.950;-122.338;2023-01-19T11:33:59;3.60;;;0.70;;
70008;SDS011;59542;37.950;-122.338;2023-01-19T11:36:31;4.53;;;0.80;;
70008;SDS011;59542;37.950;-122.338;2023-01-19T11:39:14;5.80;;;0.70;;
70008;SDS011;59542;37.950;-122.338;2023-01-19T11:41:52;1.77;;;0.80;;
70008;SDS011;59542;37.950;-122.338;2023-01-19T11:44:34;2.60;;;0.80;;
70008;SDS011;59542;37.950;-122.338;2023-01-19T11:47:49;2.45;;;1.00;;
70008;SDS011;59542;37.950;-122.338;2023-01-19T11:52:51;2.00;;;0.80;;
70008;SDS011;59542;37.950;-122.338;2023-01-19T11:58:14;1.88;;;0.80;;
70008;SDS011;59542;37.950;-122.338;2023-01-19T12:05:53;2.85;;;0.80;;
70008;SDS011;59542;37.950;-122.338;2023-01-19T12:08:26;4.00;;;1.02;;
70008;SDS011;59542;37.950;-122.338;2023-01-19T12:11:02;1.77;;;0.65;;
70008;SDS011;59542;37.950;-122.338;2023-01-19T12:13:30;3.08;;;0.90;;
70008;SDS011;59542;37.950;-122.338;2023-01-19T12:16:05;1.48;;;0.73;;
70008;SDS011;59542;37.950;-122.338;2023-01-19T12:18:37;2.17;;;0.80;;
70008;SDS011;59542;37.950;-122.338;2023-01-19T12:21:08;1.45;;;0.70;;
70008;SDS011;59542;37.950;-122.338;2023-01-19T12:26:35;3.42;;;0.85;;
70008;SDS011;59542;37.950;-122.338;2023-01-19T12:29:17;2.15;;;0.80;;
70008;SDS011;59542;37.950;-122.338;2023-01-19T12:34:47;1.92;;;0.60;;
70008;SDS011;59542;37.950;-122.338;2023-01-19T12:40:02;2.72;;;0.90;;
70008;SDS011;59542;37.950;-122.338;2023-01-19T12:42:54;2.30;;;0.60;;
70008;SDS011;59542;37.950;-122.338;2023-01-19T12:45:31;2.67;;;0.90;;
70008;SDS011;59542;37.950;-122.338;2023-01-19T12:47:59;3.85;;;0.90;;
70008;SDS011;59542;37.950;-122.338;2023-01-19T12:50:27;1.45;;;0.68;;
70008;SDS011;59542;37.950;-122.338;2023-01-19T12:52:59;1.70;;;0.80;;
70008;SDS011;59542;37.950;-122.338;2023-01-19T12:55:36;2.38;;;0.70;;
70008;SDS011;59542;37.950;-122.338;2023-01-19T12:58:20;2.25;;;0.70;;
70008;SDS011;59542;37.950;-122.338;2023-01-19T13:00:48;1.98;;;0.90;;
70008;SDS011;59542;37.950;-122.338;2023-01-19T13:03:43;5.38;;;0.95;;
70008;SDS011;59542;37.950;-122.338;2023-01-19T13:06:45;3.30;;;0.77;;
70008;SDS011;59542;37.950;-122.338;2023-01-19T13:14:44;2.10;;;0.95;;
70008;SDS011;59542;37.950;-122.338;2023-01-19T13:17:30;3.42;;;0.80;;
70008;SDS011;59542;37.950;-122.338;2023-01-19T13:20:17;2.33;;;0.68;;
70008;SDS011;59542;37.950;-122.338;2023-01-19T13:23:10;2.33;;;0.73;;
70008;SDS011;59542;37.950;-122.338;2023-01-19T13:25:43;4.68;;;0.90;;
70008;SDS011;59542;37.950;-122.338;2023-01-19T13:28:14;2.30;;;0.82;;
70008;SDS011;59542;37.950;-122.338;2023-01-19T13:30:53;3.13;;;1.13;;
70008;SDS011;59542;37.950;-122.338;2023-01-19T13:33:24;2.08;;;1.05;;
70008;SDS011;59542;37.950;-122.338;2023-01-19T13:35:56;4.43;;;1.17;;
70008;SDS011;59542;37.950;-122.338;2023-01-19T13:38:23;1.63;;;0.80;;
70008;SDS011;59542;37.950;-122.338;2023-01-19T13:40:52;3.08;;;0.80;;
70008;SDS011;59542;37.950;-122.338;2023-01-19T13:43:24;3.22;;;0.80;;
70008;SDS011;59542;37.950;-122.338;2023-01-19T13:45:55;4.40;;;1.17;;
70008;SDS011;59542;37.950;-122.338;2023-01-19T13:48:22;2.15;;;1.00;;
70008;SDS011;59542;37.950;-122.338;2023-01-19T13:50:56;1.88;;;0.80;;
70008;SDS011;59542;37.950;-122.338;2023-01-19T13:53:25;1.88;;;1.02;;
70008;SDS011;59542;37.950;-122.338;2023-01-19T13:59:00;3.38;;;1.95;;
70008;SDS011;59542;37.950;-122.338;2023-01-19T14:01:34;4.95;;;1.48;;
70008;SDS011;59542;37.950;-122.338;2023-01-19T14:04:01;2.85;;;1.48;;
70008;SDS011;59542;37.950;-122.338;2023-01-19T14:09:16;3.38;;;1.23;;
70008;SDS011;59542;37.950;-122.338;2023-01-19T14:11:45;2.10;;;1.23;;
70008;SDS011;59542;37.950;-122.338;2023-01-19T14:14:29;3.75;;;1.40;;
70008;SDS011;59542;37.950;-122.338;2023-01-19T14:16:56;2.72;;;1.50;;
70008;SDS011;59542;37.950;-122.338;2023-01-19T14:19:24;2.42;;;1.35;;
70008;SDS011;59542;37.950;-122.338;2023-01-19T14:21:57;2.90;;;1.30;;
70008;SDS011;59542;37.950;-122.338;2023-01-19T14:24:27;2.47;;;1.10;;
70008;SDS011;59542;37.950;-122.338;2023-01-19T14:29:52;3.47;;;1.17;;
70008;SDS011;59542;37.950;-122.338;2023-01-19T14:32:22;2.33;;;1.10;;
70008;SDS011;59542;37.950;-122.338;2023-01-19T14:37:29;5.72;;;1.50;;
70008;SDS011;59542;37.950;-122.338;2023-01-19T14:40:02;2.83;;;1.42;;
70008;SDS011;59542;37.950;-122.338;2023-01-19T14:42:43;4.03;;;1.58;;
70008;SDS011;59542;37.950;-122.338;2023-01-19T14:50:16;2.25;;;1.30;;
70008;SDS011;59542;37.950;-122.338;2023-01-19T14:52:47;5.63;;;1.45;;
70008;SDS011;59542;37.950;-122.338;2023-01-19T14:55:22;3.58;;;1.45;;
70008;SDS011;59542;37.950;-122.338;2023-01-19T14:57:53;5.32;;;1.70;;
70008;SDS011;59542;37.950;-122.338;2023-01-19T15:00:19;3.85;;;1.40;;
70008;SDS011;59542;37.950;-122.338;2023-01-19T15:02:46;2.83;;;1.38;;
70008;SDS011;59542;37.950;-122.338;2023-01-19T15:05:12;3.08;;;1.67;;
70008;SDS011;59542;37.950;-122.338;2023-01-19T15:07:42;3.65;;;1.20;;
70008;SDS011;59542;37.950;-122.338;2023-01-19T15:10:13;2.00;;;1.30;;
70008;SDS011;59542;37.950;-122.338;2023-01-19T15:12:42;4.15;;;1.70;;
70008;SDS011;59542;37.950;-122.338;2023-01-19T15:15:13;2.80;;;1.30;;
70008;SDS011;59542;37.950;-122.338;2023-01-19T15:17:41;4.45;;;1.45;;
70008;SDS011;59542;37.950;-122.338;2023-01-19T15:20:10;2.30;;;1.48;;
70008;SDS011;59542;37.950;-122.338;2023-01-19T15:22:40;2.50;;;1.27;;
70008;SDS011;59542;37.950;-122.338;2023-01-19T15:25:06;2.30;;;1.15;;
70008;SDS011;59542;37.950;-122.338;2023-01-19T15:27:34;4.32;;;1.60;;
70008;SDS011;59542;37.950;-122.338;2023-01-19T15:30:00;2.92;;;1.38;;
70008;SDS011;59542;37.950;-122.338;2023-01-19T15:32:26;1.33;;;1.05;;
70008;SDS011;59542;37.950;-122.338;2023-01-19T15:34:52;1.92;;;1.27;;
70008;SDS011;59542;37.950;-122.338;2023-01-19T15:37:19;6.95;;;1.60;;
70008;SDS011;59542;37.950;-122.338;2023-01-19T15:39:45;2.92;;;1.40;;
70008;SDS011;59542;37.950;-122.338;2023-01-19T15:42:11;5.13;;;1.50;;
70008;SDS011;59542;37.950;-122.338;2023-01-19T15:44:39;9.25;;;2.10;;
70008;SDS011;59542;37.950;-122.338;2023-01-19T15:47:06;3.13;;;1.35;;